Time;durP1;ratioP1;P1;durP2;ratioP2;P2;SDS_P1;SDS_P2;PMS_P1;PMS_P2;Temp;Humidity;BMP_temperature;BMP_pressure;BME280_temperature;BME280_humidity;BME280_pressure;Samples;Min_cycle;Max_cycle;Signal;HPM_P1;HPM_P2
2023/10/23 00:01:08;;;;;;;1.63;1.30;;;;;;;10.60;71.80;98639.38;5092734;28;42805;-82
2023/10/23 00:03:36;;;;;;;2.07;1.40;;;;;;;10.52;72.42;98636.38;5091211;28;41215;-82
2023/10/23 00:06:03;;;;;;;2.20;1.50;;;;;;;10.59;72.00;98658.84;5074133;28;38741;-86
2023/10/23 00:08:31;;;;;;;5.63;1.60;;;;;;;10.53;71.82;98651.31;5073593;28;41091;-83
2023/10/23 00:10:58;;;;;;;1.70;1.20;;;;;;;10.52;72.28;98658.41;5090615;28;42222;-85
2023/10/23 00:13:26;;;;;;;3.23;1.50;;;;;;;10.49;72.17;98665.72;5075094;28;42406;-82
2023/10/23 00:15:53;;;;;;;1.70;1.30;;;;;;;10.44;71.72;98666.84;5092923;28;40659;-82
2023/10/23 00:18:22;;;;;;;1.40;1.30;;;;;;;10.39;71.78;98668.94;5092109;28;41485;-85
2023/10/23 00:20:50;;;;;;;2.97;1.30;;;;;;;10.24;72.08;98651.41;5091818;28;43599;-83
2023/10/23 00:23:17;;;;;;;2.50;1.30;;;;;;;10.30;71.76;98674.81;5091823;28;43423;-83
2023/10/23 00:25:45;;;;;;;3.93;1.50;;;;;;;10.25;72.10;98671.66;5091407;28;40552;-82
2023/10/23 00:28:13;;;;;;;1.80;1.00;;;;;;;10.20;72.19;98679.00;5093047;28;42658;-82
2023/10/23 00:30:41;;;;;;;2.97;1.30;;;;;;;10.16;71.83;98681.91;5074824;28;41826;-85
2023/10/23 00:33:08;;;;;;;2.83;1.40;;;;;;;10.07;72.51;98667.47;5091974;28;42360;-84
2023/10/23 00:35:37;;;;;;;2.77;1.27;;;;;;;10.08;72.41;98674.47;5091620;28;41382;-82
2023/10/23 00:38:05;;;;;;;2.23;1.30;;;;;;;9.92;73.04;98652.56;5091571;28;41683;-85
2023/10/23 00:40:33;;;;;;;1.87;1.10;;;;;;;9.95;72.88;98670.91;5074216;28;42981;-82
2023/10/23 00:43:11;;;;;;;2.07;1.43;;;;;;;9.82;73.00;98647.00;5090062;28;43039;-80
2023/10/23 00:45:48;;;;;;;1.47;1.10;;;;;;;9.95;72.63;98684.97;5089417;28;39573;-86
2023/10/23 00:48:16;;;;;;;3.07;1.53;;;;;;;9.91;72.66;98678.16;5090795;28;40911;-81
2023/10/23 00:50:44;;;;;;;1.57;1.40;;;;;;;9.89;72.47;98684.53;5073238;28;43074;-82
2023/10/23 00:53:12;;;;;;;1.67;1.30;;;;;;;9.75;72.47;98668.66;5090503;28;41584;-82
2023/10/23 00:55:41;;;;;;;2.57;1.53;;;;;;;9.81;72.48;98677.03;5090694;28;39957;-83
2023/10/23 00:58:08;;;;;;;2.07;1.37;;;;;;;9.64;72.80;98659.56;5073575;28;41258;-85
2023/10/23 01:00:36;;;;;;;1.70;1.20;;;;;;;9.72;73.42;98677.63;5073116;28;42867;-84
2023/10/23 01:03:05;;;;;;;2.53;1.30;;;;;;;9.59;73.16;98661.66;5073437;28;41273;-85
2023/10/23 01:05:32;;;;;;;2.43;1.37;;;;;;;9.66;73.37;98684.13;5090193;28;40429;-83
2023/10/23 01:08:01;;;;;;;3.17;1.20;;;;;;;9.65;73.39;98684.22;5090371;28;41472;-84
2023/10/23 01:10:29;;;;;;;2.23;1.40;;;;;;;9.47;73.30;98670.34;5072931;28;42915;-83
2023/10/23 01:12:57;;;;;;;1.40;1.10;;;;;;;9.32;73.03;98658.91;5074058;28;40933;-81
2023/10/23 01:15:24;;;;;;;2.07;1.20;;;;;;;9.53;73.29;98695.53;5074326;28;39075;-84
2023/10/23 01:17:52;;;;;;;2.50;1.17;;;;;;;9.39;72.92;98682.34;5074417;28;40684;-82
2023/10/23 01:20:20;;;;;;;1.50;1.13;;;;;;;9.44;72.78;98693.47;5073878;28;41368;-84
2023/10/23 01:22:47;;;;;;;2.23;1.27;;;;;;;9.33;72.99;98680.91;5082256;28;41168;-82
2023/10/23 01:25:17;;;;;;;1.70;0.97;;;;;;;9.33;73.15;98691.47;5081246;28;38958;-85
2023/10/23 01:27:44;;;;;;;1.43;1.10;;;;;;;9.20;73.31;98679.94;5077782;28;40872;-85
2023/10/23 01:30:12;;;;;;;1.53;1.20;;;;;;;9.28;73.12;98701.47;5094703;28;43032;-86
2023/10/23 01:32:39;;;;;;;1.73;1.20;;;;;;;9.17;73.14;98685.41;5095656;28;42229;-82
2023/10/23 01:35:07;;;;;;;1.83;1.33;;;;;;;9.19;73.21;98699.38;5077737;28;39018;-85
2023/10/23 01:37:35;;;;;;;1.40;0.93;;;;;;;9.02;73.04;98668.69;5077167;28;41100;-82
2023/10/23 01:40:03;;;;;;;2.10;0.97;;;;;;;9.04;73.48;98673.84;5075370;28;42987;-85
2023/10/23 01:42:32;;;;;;;1.63;1.17;;;;;;;9.09;73.94;98688.50;5094405;28;42307;-84
2023/10/23 01:45:01;;;;;;;2.63;1.47;;;;;;;8.74;73.79;98639.56;5075920;28;38905;-82
2023/10/23 01:47:28;;;;;;;2.63;1.20;;;;;;;9.06;73.77;98682.53;5076328;28;40754;-83
2023/10/23 01:49:56;;;;;;;1.80;1.30;;;;;;;9.04;73.80;98684.41;5076402;28;43044;-85
2023/10/23 01:52:23;;;;;;;1.97;1.50;;;;;;;9.04;74.15;98681.78;5093398;28;43127;-85
2023/10/23 01:54:52;;;;;;;2.53;1.07;;;;;;;9.02;73.97;98688.00;5076205;28;40792;-83
2023/10/23 01:57:20;;;;;;;2.20;1.30;;;;;;;8.99;73.84;98682.91;5076350;28;40716;-82
2023/10/23 01:59:49;;;;;;;2.17;1.20;;;;;;;8.97;74.17;98690.06;5092986;28;43923;-82
2023/10/23 02:02:17;;;;;;;2.93;1.20;;;;;;;8.94;73.96;98684.97;5076255;28;42380;-81
2023/10/23 02:04:45;;;;;;;1.27;1.17;;;;;;;8.87;73.94;98677.50;5093020;28;39881;-82
2023/10/23 02:07:12;;;;;;;1.33;1.00;;;;;;;8.90;74.08;98695.81;5076139;28;42317;-84
2023/10/23 02:09:39;;;;;;;2.30;1.30;;;;;;;8.86;73.96;98695.13;5075800;28;43194;-84
2023/10/23 02:12:08;;;;;;;3.20;1.30;;;;;;;8.82;74.42;98690.97;5076479;28;41306;-84
2023/10/23 02:14:35;;;;;;;1.60;1.30;;;;;;;8.80;74.71;98689.34;5094212;28;40886;-82
2023/10/23 02:17:06;;;;;;;2.87;1.30;;;;;;;8.77;74.70;98687.75;5077185;28;43292;-84
2023/10/23 02:19:36;;;;;;;2.90;1.40;;;;;;;8.74;74.37;98692.34;5093748;28;43628;-81
2023/10/23 02:22:04;;;;;;;3.33;1.37;;;;;;;8.63;74.84;98685.06;5077138;28;41017;-81
2023/10/23 02:24:32;;;;;;;1.40;1.30;;;;;;;8.67;74.42;98697.13;5093923;28;40007;-82
2023/10/23 02:26:59;;;;;;;1.77;0.93;;;;;;;8.47;74.83;98671.88;5093790;28;41689;-81
2023/10/23 02:29:27;;;;;;;1.63;1.20;;;;;;;8.61;74.64;98708.03;5093857;28;42937;-84
2023/10/23 02:31:55;;;;;;;3.07;1.47;;;;;;;8.57;75.34;98701.22;5076600;28;42387;-81
2023/10/23 02:34:24;;;;;;;1.23;1.13;;;;;;;8.54;75.24;98696.13;5076750;28;40276;-81
2023/10/23 02:36:51;;;;;;;1.83;1.20;;;;;;;8.52;75.12;98692.75;5076580;28;41988;-81
2023/10/23 02:39:19;;;;;;;2.13;1.50;;;;;;;8.51;75.53;98698.94;5076170;28;41778;-84
2023/10/23 02:41:46;;;;;;;3.43;1.20;;;;;;;8.48;76.01;98692.06;5075011;28;41237;-83
2023/10/23 02:44:14;;;;;;;2.87;1.40;;;;;;;8.38;75.96;98680.31;5075652;28;39057;-83
2023/10/23 02:46:41;;;;;;;2.63;1.30;;;;;;;8.34;75.68;98684.06;5092497;28;41762;-85
2023/10/23 02:49:09;;;;;;;1.53;1.27;;;;;;;8.29;75.89;98686.91;5075529;28;41562;-82
2023/10/23 08:40:33;;;;;;;11.97;6.77;;;;;;;19.94;49.13;98806.19;5109334;28;20565;-82
2023/10/23 08:43:01;;;;;;;10.13;6.43;;;;;;;20.76;46.88;98798.53;5140942;27;39649;-82
2023/10/23 08:45:29;;;;;;;6.60;4.83;;;;;;;20.84;46.94;98805.78;5090362;28;43453;-82
2023/10/23 08:47:57;;;;;;;3.33;2.93;;;;;;;21.04;46.57;98817.09;5090320;28;41862;-87
2023/10/23 08:50:25;;;;;;;3.77;2.10;;;;;;;21.42;45.49;98816.56;5124478;27;42153;-87
2023/10/23 08:52:58;;;;;;;3.70;2.07;;;;;;;22.37;45.10;98822.38;5107281;28;39730;-85
2023/10/23 08:55:27;;;;;;;2.90;2.00;;;;;;;23.20;43.55;98817.38;5107616;28;41912;-83
2023/10/23 08:57:57;;;;;;;2.73;2.27;;;;;;;23.63;42.56;98821.34;5107202;28;43671;-85
2023/10/23 09:00:25;;;;;;;3.17;1.77;;;;;;;23.64;42.50;98814.91;5124363;27;41224;-84
2023/10/23 09:02:53;;;;;;;3.13;1.60;;;;;;;23.45;41.53;98831.59;5090366;28;40312;-82
2023/10/23 09:05:20;;;;;;;3.47;1.80;;;;;;;23.29;42.51;98819.84;5090244;28;42479;-86
2023/10/23 09:07:48;;;;;;;2.40;2.10;;;;;;;23.31;42.06;98821.53;5108549;28;43493;-84
2023/10/23 09:10:15;;;;;;;3.27;1.90;;;;;;;23.56;41.06;98814.97;5107020;28;42225;-85
2023/10/23 09:12:43;;;;;;;2.77;1.77;;;;;;;23.64;41.01;98821.16;5090546;28;39043;-86
2023/10/23 09:15:16;;;;;;;2.83;1.73;;;;;;;22.95;42.31;98811.25;5109173;28;42548;-84
2023/10/23 09:17:45;;;;;;;2.60;1.50;;;;;;;22.25;43.55;98789.50;5107905;28;43059;-84
2023/10/23 09:20:23;;;;;;;3.60;1.77;;;;;;;21.77;44.34;98780.38;5108548;28;42757;-82
2023/10/23 09:22:52;;;;;;;4.77;2.03;;;;;;;21.45;44.91;98783.91;5109335;28;40101;-85
2023/10/23 09:25:21;;;;;;;2.73;1.70;;;;;;;21.21;45.43;98780.34;5090878;28;40848;-85
2023/10/23 09:27:49;;;;;;;3.67;1.40;;;;;;;21.07;46.40;98763.78;5141957;27;42948;-84
2023/10/23 09:30:21;;;;;;;1.57;1.17;;;;;;;20.97;46.61;98756.84;5107301;28;42248;-84
2023/10/23 09:32:54;;;;;;;2.63;1.70;;;;;;;20.73;46.92;98742.31;5104680;28;40819;-84
2023/10/23 09:35:24;;;;;;;6.20;1.80;;;;;;;20.65;47.57;98742.25;5090413;28;40385;-86
2023/10/23 09:37:52;;;;;;;2.07;1.47;;;;;;;20.64;47.29;98747.84;5090586;28;41842;-86
2023/10/23 09:40:19;;;;;;;6.37;1.90;;;;;;;20.65;48.25;98742.25;5123846;27;44024;-84
2023/10/23 09:42:47;;;;;;;3.37;1.43;;;;;;;20.73;48.64;98749.53;5105571;28;39298;-84
2023/10/23 09:45:16;;;;;;;4.47;1.70;;;;;;;20.70;48.21;98739.94;5107599;28;42533;-85
2023/10/23 09:47:47;;;;;;;3.73;1.60;;;;;;;20.78;48.21;98736.44;5089376;28;41716;-82
2023/10/23 09:50:14;;;;;;;3.40;1.83;;;;;;;20.79;47.88;98722.81;5101664;28;42546;-85
2023/10/23 09:52:45;;;;;;;3.33;1.63;;;;;;;20.81;48.05;98733.41;5093890;28;40881;-82
2023/10/23 09:55:13;;;;;;;2.03;1.33;;;;;;;20.68;48.67;98715.03;5092543;28;41981;-83
2023/10/23 09:57:45;;;;;;;2.80;1.50;;;;;;;20.88;48.71;98723.69;5092550;28;42632;-85
2023/10/23 10:00:14;;;;;;;5.20;1.70;;;;;;;21.12;48.58;98737.22;5096469;28;42313;-83
2023/10/23 10:02:46;;;;;;;3.43;1.63;;;;;;;21.22;48.19;98741.63;5079837;28;38675;-84
2023/10/23 10:05:20;;;;;;;3.53;1.90;;;;;;;21.13;47.05;98746.97;5092457;28;42499;-84
2023/10/23 10:07:59;;;;;;;2.93;1.60;;;;;;;21.06;47.98;98729.78;5075586;28;41744;-85
2023/10/23 10:10:27;;;;;;;2.97;1.30;;;;;;;21.15;47.29;98736.84;5092405;28;44036;-85
2023/10/23 10:12:56;;;;;;;3.83;1.70;;;;;;;21.21;48.69;98723.78;5093254;28;39494;-85
2023/10/23 10:15:24;;;;;;;2.70;1.47;;;;;;;21.19;47.46;98729.31;5093310;28;40587;-83
2023/10/23 10:17:53;;;;;;;2.97;1.17;;;;;;;21.19;48.58;98715.00;5076380;28;42148;-87
2023/10/23 10:20:22;;;;;;;4.10;1.60;;;;;;;21.07;48.33;98683.00;5093165;28;41063;-88
2023/10/23 10:22:55;;;;;;;3.73;1.13;;;;;;;21.12;47.78;98694.13;5093467;28;39261;-82
2023/10/23 10:25:24;;;;;;;2.33;1.43;;;;;;;21.24;47.78;98712.69;5075244;28;42136;-83
2023/10/23 10:27:57;;;;;;;2.50;1.40;;;;;;;21.33;47.24;98728.69;5074642;28;41615;-83
2023/10/23 10:30:45;;;;;;;3.53;1.23;;;;;;;21.42;47.18;98718.75;5075583;28;41167;-86
2023/10/23 10:33:22;;;;;;;2.87;1.20;;;;;;;21.66;47.06;98726.81;5092676;28;41553;-84
2023/10/23 10:35:51;;;;;;;2.57;1.30;;;;;;;21.76;46.04;98743.66;5108897;28;42481;-86
2023/10/23 10:38:23;;;;;;;3.20;1.40;;;;;;;21.79;46.35;98721.75;5074426;28;43367;-86
2023/10/23 10:40:55;;;;;;;3.37;1.30;;;;;;;21.94;44.98;98734.56;5074848;28;43951;-83
2023/10/23 10:43:25;;;;;;;2.60;1.60;;;;;;;21.90;45.65;98723.25;5091699;28;39051;-83
2023/10/23 10:45:52;;;;;;;3.13;1.20;;;;;;;21.96;45.28;98729.84;5074713;28;41356;-83
2023/10/23 10:48:23;;;;;;;1.57;1.10;;;;;;;21.93;45.14;98732.88;5074788;28;41879;-88
2023/10/23 10:50:51;;;;;;;2.80;1.23;;;;;;;21.82;45.66;98716.03;5075172;28;42322;-83
2023/10/23 10:53:19;;;;;;;2.53;1.43;;;;;;;21.78;45.65;98703.91;5091711;28;39047;-85
2023/10/23 10:55:46;;;;;;;3.57;1.37;;;;;;;21.68;45.41;98697.00;5091685;28;40866;-85
2023/10/23 10:58:14;;;;;;;2.90;1.37;;;;;;;21.56;45.84;98674.94;5074417;28;41972;-85
2023/10/23 11:00:43;;;;;;;2.70;1.53;;;;;;;21.74;46.51;98682.88;5074510;28;40931;-85
2023/10/23 11:03:10;;;;;;;3.07;1.40;;;;;;;21.74;46.38;98678.31;5090427;28;39881;-87
2023/10/23 11:05:45;;;;;;;2.97;1.50;;;;;;;21.80;46.63;98658.75;5092655;28;41879;-88
2023/10/23 11:08:12;;;;;;;3.13;1.40;;;;;;;21.82;46.02;98680.13;5088685;28;42886;-84
2023/10/23 11:10:42;;;;;;;2.53;1.30;;;;;;;21.66;45.20;98667.53;5074610;28;42120;-89
2023/10/23 11:13:14;;;;;;;2.43;1.17;;;;;;;21.70;45.74;98674.25;5091921;28;38536;-89
2023/10/23 11:15:42;;;;;;;3.33;1.47;;;;;;;21.69;46.38;98656.41;5075975;28;41036;-90
2023/10/23 11:18:09;;;;;;;5.37;2.00;;;;;;;21.73;46.08;98662.31;5075714;28;41747;-87
2023/10/23 11:20:39;;;;;;;2.57;1.70;;;;;;;21.47;45.32;98630.16;5109509;28;40821;-86
2023/10/23 11:23:07;;;;;;;2.03;1.30;;;;;;;21.67;44.94;98669.22;5075504;28;40421;-86
2023/10/23 11:25:36;;;;;;;2.40;1.30;;;;;;;21.68;45.12;98676.28;5092627;28;43224;-84
2023/10/23 11:28:06;;;;;;;2.57;1.73;;;;;;;21.70;45.33;98663.50;5109123;28;43029;-86
2023/10/23 11:30:45;;;;;;;2.50;1.13;;;;;;;21.62;45.41;98646.50;5109790;28;42196;-84
2023/10/23 11:33:13;;;;;;;2.53;1.40;;;;;;;21.66;45.89;98650.50;5092661;28;39221;-85
2023/10/23 11:35:43;;;;;;;2.73;1.57;;;;;;;21.65;46.05;98646.97;5075458;28;41689;-86
2023/10/23 11:38:14;;;;;;;3.80;1.40;;;;;;;21.50;46.39;98619.06;5091554;28;41850;-84
2023/10/23 11:40:43;;;;;;;2.63;1.53;;;;;;;21.62;45.91;98647.34;5091608;28;42292;-85
2023/10/23 11:43:11;;;;;;;3.83;1.43;;;;;;;21.63;46.43;98621.22;5073458;28;39079;-86
2023/10/23 11:45:40;;;;;;;2.17;1.40;;;;;;;21.83;47.07;98619.81;5092250;28;42678;-84
2023/10/23 11:48:08;;;;;;;2.93;1.60;;;;;;;22.07;47.10;98621.63;5090707;28;42900;-85
2023/10/23 11:50:36;;;;;;;3.63;1.73;;;;;;;22.24;45.01;98635.91;5091075;28;42285;-84
2023/10/23 11:53:05;;;;;;;3.03;1.60;;;;;;;22.32;45.06;98625.06;5125472;27;40179;-87
2023/10/23 11:55:33;;;;;;;3.33;1.40;;;;;;;22.36;45.26;98616.44;5090965;28;41250;-86
2023/10/23 11:58:03;;;;;;;3.50;1.47;;;;;;;22.45;45.31;98625.34;5091516;28;42609;-83
2023/10/23 12:00:32;;;;;;;3.20;1.40;;;;;;;22.49;45.89;98616.72;5090640;28;42047;-84
2023/10/23 12:03:00;;;;;;;3.43;1.67;;;;;;;22.47;45.96;98612.50;5073688;28;39997;-84
2023/10/23 12:05:28;;;;;;;2.97;1.20;;;;;;;22.38;45.85;98598.19;5091107;28;41869;-85
2023/10/23 12:07:56;;;;;;;3.10;1.50;;;;;;;22.41;44.72;98619.44;5090647;28;43034;-85
2023/10/23 12:10:27;;;;;;;2.10;1.70;;;;;;;22.28;46.03;98592.19;5090697;28;42379;-84
2023/10/23 12:12:55;;;;;;;3.73;1.47;;;;;;;22.23;45.19;98605.38;5090772;28;40430;-85
2023/10/23 12:15:24;;;;;;;1.60;1.23;;;;;;;22.14;45.54;98601.03;5091502;28;41757;-84
2023/10/23 12:17:52;;;;;;;2.80;1.30;;;;;;;21.69;45.30;98543.19;5075125;28;41711;-88
2023/10/23 12:20:21;;;;;;;5.13;1.80;;;;;;;21.80;45.47;98572.47;5071902;28;41035;-89
2023/10/23 12:22:50;;;;;;;2.77;1.50;;;;;;;21.84;45.18;98594.53;5091208;28;41112;-87
2023/10/23 12:25:17;;;;;;;2.80;1.30;;;;;;;21.75;45.79;98588.34;5091069;28;43179;-88
2023/10/23 12:27:46;;;;;;;2.37;1.80;;;;;;;21.64;45.07;98575.22;5074557;28;41837;-90
2023/10/23 12:30:15;;;;;;;3.90;1.90;;;;;;;21.54;45.47;98571.88;5073418;28;41523;-84
2023/10/23 12:32:42;;;;;;;4.97;1.90;;;;;;;21.50;45.15;98566.00;5091354;28;39573;-86
2023/10/23 12:35:11;;;;;;;5.60;1.63;;;;;;;21.56;44.99;98575.25;5091077;28;40999;-83
2023/10/23 12:37:39;;;;;;;2.10;1.27;;;;;;;21.46;45.36;98548.50;5090900;28;43809;-87
2023/10/23 12:40:10;;;;;;;4.20;1.40;;;;;;;21.49;45.91;98550.00;5090305;28;42484;-84
2023/10/23 12:42:39;;;;;;;5.13;1.90;;;;;;;21.45;46.18;98545.97;5089488;28;39792;-85
2023/10/23 12:45:10;;;;;;;2.43;1.30;;;;;;;21.43;46.17;98548.00;5072981;28;42777;-83
2023/10/23 12:47:38;;;;;;;3.10;1.30;;;;;;;21.26;46.51;98524.81;5072138;28;44222;-84
2023/10/23 12:50:06;;;;;;;2.17;1.50;;;;;;;21.22;46.41;98523.47;5099040;28;43494;-84
2023/10/23 12:52:34;;;;;;;3.20;1.57;;;;;;;21.19;45.74;98521.09;5094667;28;40620;-84
2023/10/23 12:55:02;;;;;;;2.43;1.80;;;;;;;21.22;45.65;98524.31;5072809;28;41533;-85
2023/10/23 12:57:32;;;;;;;2.93;1.50;;;;;;;21.41;45.55;98536.53;5090223;28;42430;-84
2023/10/23 13:00:00;;;;;;;2.30;1.30;;;;;;;21.37;45.79;98519.06;5071949;28;41076;-86
2023/10/23 13:02:29;;;;;;;2.23;1.30;;;;;;;21.40;45.82;98516.00;5090076;28;39051;-91
2023/10/23 13:04:57;;;;;;;6.27;1.77;;;;;;;21.38;45.95;98512.66;5072945;28;41168;-88
2023/10/23 13:07:25;;;;;;;2.63;1.30;;;;;;;21.31;45.76;98517.88;5071983;28;41608;-82
2023/10/23 13:09:52;;;;;;;2.00;1.37;;;;;;;21.02;46.18;98486.09;5072265;28;43654;-84
2023/10/23 13:12:20;;;;;;;3.20;1.67;;;;;;;20.98;46.43;98500.09;5089819;28;40460;-85
2023/10/23 13:14:48;;;;;;;2.77;1.33;;;;;;;20.77;46.11;98506.00;5089434;28;40924;-84
2023/10/23 13:17:16;;;;;;;2.80;1.60;;;;;;;20.49;46.88;98493.88;5090962;28;43152;-89
2023/10/23 13:19:45;;;;;;;2.83;1.50;;;;;;;20.29;47.23;98478.00;5072065;28;41277;-89
2023/10/23 13:22:14;;;;;;;3.63;1.33;;;;;;;20.11;47.04;98469.25;5072976;28;40062;-87
2023/10/23 13:24:42;;;;;;;3.10;1.20;;;;;;;20.01;47.75;98473.94;5073496;28;40733;-88
2023/10/23 13:27:12;;;;;;;1.47;0.97;;;;;;;19.90;47.67;98466.19;5076039;28;41798;-89
2023/10/23 13:29:39;;;;;;;2.33;1.60;;;;;;;19.87;48.24;98472.72;5075192;28;41179;-90
2023/10/23 13:32:07;;;;;;;1.90;1.40;;;;;;;19.76;47.87;98458.75;5074999;28;39255;-89
2023/10/23 13:34:35;;;;;;;4.00;1.57;;;;;;;19.83;48.36;98465.16;5076075;28;40808;-88
2023/10/23 13:37:04;;;;;;;4.30;1.70;;;;;;;19.72;47.92;98444.81;5070945;28;42891;-89
2023/10/23 13:39:32;;;;;;;1.40;1.30;;;;;;;19.72;47.97;98451.03;5054957;28;41766;-88
2023/10/23 13:41:59;;;;;;;1.57;1.43;;;;;;;19.61;48.57;98429.84;5074811;28;40427;-84
2023/10/23 13:44:27;;;;;;;2.33;1.17;;;;;;;19.69;48.91;98440.59;5073764;28;40507;-86
2023/10/23 13:46:55;;;;;;;4.80;1.53;;;;;;;19.67;49.29;98433.69;5073812;28;43051;-85
2023/10/23 13:49:22;;;;;;;4.13;1.50;;;;;;;19.39;49.82;98387.44;5075287;28;40985;-85
2023/10/23 13:51:49;;;;;;;2.63;1.10;;;;;;;19.80;49.84;98435.91;5091963;28;40213;-85
2023/10/23 13:54:18;;;;;;;3.33;1.20;;;;;;;19.84;49.08;98426.53;5075828;28;42318;-84
2023/10/23 13:56:47;;;;;;;2.03;1.20;;;;;;;19.82;49.92;98386.38;5093340;28;43850;-85
2023/10/23 13:59:15;;;;;;;1.93;1.10;;;;;;;19.89;49.89;98376.66;5074642;28;40890;-84
2023/10/23 14:01:42;;;;;;;2.03;1.50;;;;;;;19.95;49.78;98369.78;5071708;28;38834;-84
2023/10/23 14:04:10;;;;;;;2.33;1.10;;;;;;;19.83;48.91;98393.44;5090471;28;41189;-84
2023/10/23 14:06:38;;;;;;;2.77;1.27;;;;;;;19.80;48.28;98411.72;5074087;28;43143;-84
2023/10/23 14:09:07;;;;;;;2.40;1.00;;;;;;;19.76;48.22;98413.09;5071539;28;44090;-84
2023/10/23 14:11:36;;;;;;;0.93;0.93;;;;;;;19.73;48.51;98404.34;5090369;28;40358;-84
2023/10/23 14:14:04;;;;;;;1.80;1.10;;;;;;;19.53;48.52;98367.19;5076828;28;40228;-85
2023/10/23 14:16:32;;;;;;;1.90;0.97;;;;;;;19.55;49.23;98360.63;5074190;28;42820;-85
2023/10/23 14:18:59;;;;;;;1.70;0.93;;;;;;;19.45;49.45;98359.06;5076144;28;42239;-85
2023/10/23 14:21:26;;;;;;;1.00;0.90;;;;;;;19.36;49.67;98351.00;5072794;28;38902;-85
2023/10/23 14:23:54;;;;;;;1.77;1.00;;;;;;;19.33;50.42;98353.16;5094681;28;42418;-84
2023/10/23 14:26:21;;;;;;;2.20;1.00;;;;;;;19.15;50.82;98336.34;5076258;28;41821;-83
2023/10/23 14:28:50;;;;;;;3.30;1.20;;;;;;;18.96;50.84;98316.81;5093040;28;41073;-84
2023/10/23 14:31:18;;;;;;;1.47;1.00;;;;;;;18.98;51.28;98325.53;5075622;28;38933;-84
2023/10/23 14:33:45;;;;;;;1.20;1.10;;;;;;;18.96;51.33;98330.22;5076360;28;41876;-84
2023/10/23 14:36:14;;;;;;;1.63;1.53;;;;;;;18.78;51.42;98312.53;5092694;28;41775;-84
2023/10/23 14:38:42;;;;;;;1.87;1.00;;;;;;;18.73;51.41;98315.69;5091578;28;41684;-84
2023/10/23 14:41:10;;;;;;;2.73;1.23;;;;;;;18.77;51.83;98325.13;5075533;28;39170;-84
2023/10/23 14:43:37;;;;;;;4.27;1.00;;;;;;;18.64;52.40;98313.97;5072627;28;40496;-84
2023/10/23 14:46:12;;;;;;;2.10;1.37;;;;;;;18.61;52.53;98316.97;5092676;28;42359;-84
2023/10/23 14:48:40;;;;;;;2.33;1.30;;;;;;;18.54;52.73;98315.91;5074385;28;43873;-84
2023/10/23 14:51:07;;;;;;;1.27;1.17;;;;;;;18.53;53.19;98317.75;5073997;28;40254;-84
2023/10/23 14:53:35;;;;;;;2.13;1.20;;;;;;;18.53;53.05;98330.31;5091801;28;42776;-85
2023/10/23 14:56:09;;;;;;;2.00;1.07;;;;;;;18.47;53.68;98325.56;5091656;28;42803;-85
2023/10/23 14:58:36;;;;;;;1.47;0.90;;;;;;;18.28;53.69;98298.00;5090401;28;41301;-84
2023/10/23 15:01:07;;;;;;;2.07;1.07;;;;;;;18.31;53.87;98310.22;5091154;28;40684;-84
2023/10/23 15:03:35;;;;;;;1.37;1.00;;;;;;;18.25;54.45;98309.03;5074334;28;41139;-84
2023/10/23 15:06:10;;;;;;;1.20;1.10;;;;;;;18.17;54.51;98300.09;5090313;28;42619;-84
2023/10/23 15:08:37;;;;;;;1.80;1.20;;;;;;;18.15;54.50;98307.44;5073508;28;43678;-83
2023/10/23 15:11:05;;;;;;;1.87;1.10;;;;;;;18.03;54.59;98292.63;5090967;28;40174;-84
2023/10/23 15:13:33;;;;;;;2.17;1.30;;;;;;;18.08;55.26;98301.84;5091960;28;42553;-83
2023/10/23 15:16:03;;;;;;;2.20;1.20;;;;;;;18.05;55.47;98287.97;5075109;28;41955;-84
2023/10/23 15:18:31;;;;;;;1.40;1.30;;;;;;;18.07;55.81;98292.13;5074601;28;42487;-85
2023/10/23 15:21:03;;;;;;;2.10;1.00;;;;;;;18.07;55.53;98277.91;5074976;28;40462;-84
2023/10/23 15:23:30;;;;;;;2.07;1.20;;;;;;;17.93;55.84;98252.50;5089718;28;41846;-85
2023/10/23 15:25:58;;;;;;;2.37;1.30;;;;;;;17.99;55.99;98256.41;5073606;28;44293;-85
2023/10/23 15:28:26;;;;;;;1.80;1.20;;;;;;;17.94;57.13;98247.00;5091787;28;43684;-85
2023/10/23 15:30:59;;;;;;;3.33;1.40;;;;;;;17.88;57.13;98244.13;5091959;28;40027;-84
2023/10/23 15:33:28;;;;;;;2.67;1.30;;;;;;;17.81;57.40;98232.34;5088141;28;42514;-85
2023/10/23 15:35:59;;;;;;;1.33;1.17;;;;;;;17.71;57.37;98231.59;5093086;28;42044;-85
2023/10/23 15:38:29;;;;;;;1.40;1.30;;;;;;;17.59;57.24;98234.50;5085650;28;40849;-84
2023/10/23 15:41:05;;;;;;;3.17;1.20;;;;;;;17.40;57.78;98218.63;5094447;28;40344;-84
2023/10/23 15:43:32;;;;;;;1.70;1.33;;;;;;;17.26;58.39;98211.13;5090888;28;40764;-83
2023/10/23 15:46:00;;;;;;;1.57;1.10;;;;;;;17.16;59.29;98215.72;5091435;28;43459;-84
2023/10/23 15:48:27;;;;;;;2.47;1.57;;;;;;;17.02;60.02;98208.22;5073144;28;42128;-84
2023/10/23 15:50:56;;;;;;;1.60;1.03;;;;;;;16.59;60.58;98163.44;5088739;28;39182;-84
2023/10/23 15:53:27;;;;;;;2.93;1.40;;;;;;;16.36;63.03;98142.47;5090953;28;42054;-84
2023/10/23 15:55:56;;;;;;;2.07;1.17;;;;;;;16.62;63.31;98217.47;5086566;28;43819;-84
2023/10/23 15:58:24;;;;;;;1.90;1.10;;;;;;;16.51;63.51;98209.63;5089483;28;43120;-84
2023/10/23 16:00:52;;;;;;;1.70;1.20;;;;;;;16.44;64.31;98229.94;5087970;28;40084;-84
2023/10/23 16:03:20;;;;;;;1.83;1.10;;;;;;;16.36;64.68;98230.66;5073340;28;41035;-84
2023/10/23 16:05:48;;;;;;;2.13;1.30;;;;;;;16.30;64.55;98238.44;5074392;28;41797;-84
2023/10/23 16:08:17;;;;;;;1.67;1.17;;;;;;;16.22;64.67;98230.28;5072588;28;41252;-84
2023/10/23 16:10:48;;;;;;;3.33;1.30;;;;;;;16.21;65.61;98223.25;5074222;28;40142;-84
2023/10/23 16:13:16;;;;;;;1.83;1.23;;;;;;;16.01;67.15;98185.94;5074393;28;40613;-84
2023/10/23 16:15:45;;;;;;;2.40;2.00;;;;;;;16.07;67.43;98188.03;5071111;28;41803;-85
2023/10/23 16:18:13;;;;;;;1.50;1.40;;;;;;;15.87;70.10;98177.56;5077615;28;42817;-85
2023/10/23 16:20:42;;;;;;;2.23;1.60;;;;;;;15.87;70.59;98194.44;5090919;28;39415;-85
2023/10/23 16:23:10;;;;;;;3.00;1.27;;;;;;;15.79;71.01;98197.00;5092070;28;41813;-85
2023/10/23 16:25:40;;;;;;;3.30;1.33;;;;;;;15.72;71.06;98185.19;5075001;28;41960;-84
2023/10/23 16:28:09;;;;;;;2.80;1.30;;;;;;;15.63;71.23;98180.72;5074906;28;42702;-84
2023/10/23 16:30:37;;;;;;;2.00;1.57;;;;;;;15.58;71.85;98167.78;5091380;28;38795;-84
2023/10/23 16:33:04;;;;;;;2.27;1.63;;;;;;;15.45;71.91;98162.72;5075098;28;40399;-85
2023/10/23 16:35:34;;;;;;;3.33;1.80;;;;;;;15.40;72.77;98165.00;5091756;28;42871;-85
2023/10/23 16:38:02;;;;;;;3.90;2.00;;;;;;;15.32;72.83;98162.22;5089651;28;42758;-85
2023/10/23 16:40:32;;;;;;;3.37;2.10;;;;;;;15.22;74.29;98161.38;5092031;28;40698;-85
2023/10/23 16:43:00;;;;;;;3.57;1.97;;;;;;;15.14;73.72;98168.41;5071927;28;40784;-85
2023/10/23 16:45:31;;;;;;;3.70;1.83;;;;;;;15.03;73.79;98148.06;5073210;28;41781;-84
2023/10/23 16:47:59;;;;;;;2.60;2.23;;;;;;;15.02;74.17;98149.03;5073675;28;40731;-85
2023/10/23 16:50:27;;;;;;;3.13;1.77;;;;;;;15.05;74.25;98159.44;5091685;28;39974;-85
2023/10/23 16:52:56;;;;;;;3.30;2.10;;;;;;;15.01;74.16;98142.84;5073561;28;42317;-85
2023/10/23 16:55:24;;;;;;;3.10;2.00;;;;;;;14.94;74.87;98146.25;5090286;28;43516;-85
2023/10/23 16:57:52;;;;;;;4.17;2.10;;;;;;;14.86;74.57;98138.09;5090409;28;42791;-85
2023/10/23 17:00:19;;;;;;;1.97;1.80;;;;;;;14.76;74.14;98126.59;5090776;28;38561;-86
2023/10/23 17:02:48;;;;;;;2.57;1.50;;;;;;;14.94;74.60;98146.25;5077132;28;42153;-85
2023/10/23 17:05:16;;;;;;;2.53;2.03;;;;;;;14.94;74.30;98130.25;5093933;28;41819;-85
2023/10/23 17:07:44;;;;;;;2.00;1.80;;;;;;;14.88;74.79;98136.97;5094064;28;42352;-84
2023/10/23 17:10:11;;;;;;;2.10;1.50;;;;;;;14.91;75.06;98147.34;5093390;28;38876;-85
2023/10/23 17:12:39;;;;;;;1.73;1.63;;;;;;;14.79;75.33;98126.31;5094476;28;41710;-84
2023/10/23 17:15:08;;;;;;;3.60;2.20;;;;;;;14.88;75.29;98152.13;5077836;28;41739;-85
2023/10/23 17:17:35;;;;;;;4.10;2.37;;;;;;;14.83;75.57;98141.91;5078212;28;41610;-85
2023/10/23 17:20:05;;;;;;;3.47;2.73;;;;;;;14.72;75.30;98134.84;5094491;28;38941;-84
2023/10/23 17:22:33;;;;;;;3.50;3.10;;;;;;;14.78;75.23;98152.13;5094910;28;41447;-84
2023/10/23 17:25:00;;;;;;;2.93;2.40;;;;;;;14.72;76.12;98145.50;5077603;28;41871;-85
2023/10/23 17:27:28;;;;;;;4.10;3.13;;;;;;;14.68;76.80;98136.13;5077725;28;42078;-84
2023/10/23 17:29:56;;;;;;;3.83;2.87;;;;;;;14.67;77.03;98133.59;5094414;28;39236;-84